Time;durP1;ratioP1;P1;durP2;ratioP2;P2;SDS_P1;SDS_P2;PMS_P1;PMS_P2;Temp;Humidity;BMP_temperature;BMP_pressure;BME280_temperature;BME280_humidity;BME280_pressure;Samples;Min_cycle;Max_cycle;Signal;HPM_P1;HPM_P2
2022/08/06 00:02:37;;;;;;;5.77;3.90;;;;;;;;;;5093934;28;20276;-81
2022/08/06 00:05:05;;;;;;;5.60;3.60;;;;;;;;;;5093648;28;20189;-81
2022/08/06 00:07:33;;;;;;;6.40;3.73;;;;;;;;;;5059079;28;20193;-81
2022/08/06 00:10:16;;;;;;;6.33;3.70;;;;;;;;;;5078100;28;21284;-81
2022/08/06 00:12:44;;;;;;;4.83;3.13;;;;;;;;;;5093308;28;20208;-81
2022/08/06 00:15:14;;;;;;;6.53;3.40;;;;;;;;;;5059408;28;20224;-81
2022/08/06 00:17:47;;;;;;;6.43;4.23;;;;;;;;;;5075523;28;20569;-81
2022/08/06 00:20:17;;;;;;;7.23;3.87;;;;;;;;;;5075246;28;20288;-82
2022/08/06 00:22:57;;;;;;;3.93;3.07;;;;;;;;;;5093316;28;20269;-80
2022/08/06 00:25:26;;;;;;;6.10;3.37;;;;;;;;;;5071635;28;20186;-82
2022/08/06 00:27:53;;;;;;;6.97;3.50;;;;;;;;;;5073022;28;20218;-82
2022/08/06 00:30:20;;;;;;;7.20;3.10;;;;;;;;;;5055525;28;20217;-81
2022/08/06 00:32:51;;;;;;;4.40;3.23;;;;;;;;;;5055413;28;20247;-83
2022/08/06 00:35:23;;;;;;;5.17;3.50;;;;;;;;;;5055540;28;20236;-81
2022/08/06 00:37:56;;;;;;;5.23;3.20;;;;;;;;;;5055947;28;20620;-82
2022/08/06 00:40:26;;;;;;;7.97;2.93;;;;;;;;;;5055671;28;20499;-81
2022/08/06 00:42:56;;;;;;;5.30;2.77;;;;;;;;;;5055181;28;20197;-82
2022/08/06 00:45:23;;;;;;;5.13;3.20;;;;;;;;;;5072626;28;20193;-82
2022/08/06 00:47:55;;;;;;;4.43;3.10;;;;;;;;;;5055483;28;20194;-81
2022/08/06 00:50:39;;;;;;;5.70;2.90;;;;;;;;;;5054911;28;21050;-82
2022/08/06 00:53:09;;;;;;;6.93;3.00;;;;;;;;;;5054107;28;20681;-82
2022/08/06 00:55:53;;;;;;;3.83;3.10;;;;;;;;;;5072828;28;20190;-82
2022/08/06 00:58:28;;;;;;;4.90;2.33;;;;;;;;;;5054625;28;20228;-81
2022/08/06 01:01:12;;;;;;;7.23;2.67;;;;;;;;;;5072828;28;20171;-83
2022/08/06 01:03:44;;;;;;;7.30;2.40;;;;;;;;;;5072442;28;20604;-80
2022/08/06 01:06:21;;;;;;;6.30;2.60;;;;;;;;;;5055892;28;20186;-81
2022/08/06 01:09:08;;;;;;;9.03;2.60;;;;;;;;;;5057731;28;20247;-81
2022/08/06 01:11:52;;;;;;;4.23;2.57;;;;;;;;;;5054329;28;20178;-81
2022/08/06 01:14:26;;;;;;;7.17;2.70;;;;;;;;;;5038510;28;20217;-81
2022/08/06 01:17:17;;;;;;;4.03;2.47;;;;;;;;;;5038692;28;20216;-82
2022/08/06 01:20:12;;;;;;;5.03;2.43;;;;;;;;;;5055590;28;20216;-82
2022/08/06 01:23:18;;;;;;;7.00;2.40;;;;;;;;;;5057226;28;20258;-81
2022/08/06 01:25:47;;;;;;;6.63;2.23;;;;;;;;;;5079054;28;20200;-82
2022/08/06 01:28:17;;;;;;;4.40;1.60;;;;;;;;;;5092068;28;20245;-82
2022/08/06 01:30:50;;;;;;;7.73;1.67;;;;;;;;;;5074873;28;20228;-82
2022/08/06 01:33:23;;;;;;;3.50;1.77;;;;;;;;;;5074148;28;20244;-81
2022/08/06 01:35:59;;;;;;;5.00;1.73;;;;;;;;;;5058595;28;20193;-82
2022/08/06 01:38:28;;;;;;;7.23;1.93;;;;;;;;;;5074172;28;20251;-83
2022/08/06 01:40:56;;;;;;;4.10;1.57;;;;;;;;;;5091758;28;20194;-81
2022/08/06 01:43:23;;;;;;;4.83;1.30;;;;;;;;;;5074147;28;20649;-81
2022/08/06 01:46:10;;;;;;;5.40;1.37;;;;;;;;;;5077362;28;20606;-81
2022/08/06 01:48:37;;;;;;;3.93;1.30;;;;;;;;;;5073814;28;20185;-82
2022/08/06 01:51:04;;;;;;;7.27;1.40;;;;;;;;;;5074227;28;20193;-82
2022/08/06 01:53:35;;;;;;;4.37;1.50;;;;;;;;;;5057884;28;20201;-82
2022/08/06 01:56:22;;;;;;;4.67;1.50;;;;;;;;;;5063527;28;20664;-82
2022/08/06 01:58:56;;;;;;;4.20;1.67;;;;;;;;;;5058101;28;20199;-81
2022/08/06 02:01:23;;;;;;;5.43;1.63;;;;;;;;;;5074042;28;20192;-82
2022/08/06 02:03:51;;;;;;;6.53;1.70;;;;;;;;;;5057008;28;20189;-82
2022/08/06 02:06:28;;;;;;;4.07;1.40;;;;;;;;;;5074816;28;20197;-81
2022/08/06 02:09:13;;;;;;;4.97;1.50;;;;;;;;;;5076282;28;20254;-82
2022/08/06 02:11:56;;;;;;;3.83;1.60;;;;;;;;;;5091776;28;20193;-83
2022/08/06 02:15:02;;;;;;;3.00;1.33;;;;;;;;;;5058975;28;20193;-82
2022/08/06 02:17:32;;;;;;;4.50;1.73;;;;;;;;;;5058965;28;20229;-81
2022/08/06 02:20:21;;;;;;;4.33;1.17;;;;;;;;;;5076653;28;20186;-82
2022/08/06 02:23:04;;;;;;;5.27;1.37;;;;;;;;;;5075983;28;20215;-83
2022/08/06 02:25:41;;;;;;;2.87;1.20;;;;;;;;;;5051623;28;20181;-82
2022/08/06 02:28:08;;;;;;;2.80;1.27;;;;;;;;;;5053758;28;20234;-82
2022/08/06 02:30:41;;;;;;;4.67;1.07;;;;;;;;;;5053264;28;20182;-82
2022/08/06 02:33:09;;;;;;;1.97;1.03;;;;;;;;;;5053380;28;20669;-83
2022/08/06 02:35:44;;;;;;;3.30;0.87;;;;;;;;;;5070653;28;20738;-82
2022/08/06 02:38:19;;;;;;;2.97;0.73;;;;;;;;;;5051829;28;20217;-83
2022/08/06 02:41:27;;;;;;;4.20;1.17;;;;;;;;;;5025023;28;20659;-81
2022/08/06 02:43:57;;;;;;;2.03;0.90;;;;;;;;;;5008890;28;20207;-83
2022/08/06 02:46:26;;;;;;;1.70;1.00;;;;;;;;;;5065010;28;20675;-82
2022/08/06 02:48:58;;;;;;;3.50;1.00;;;;;;;;;;5036553;28;20205;-82
2022/08/06 02:51:46;;;;;;;4.97;1.00;;;;;;;;;;5038784;28;20224;-82
2022/08/06 02:54:40;;;;;;;3.30;0.83;;;;;;;;;;5056208;28;20186;-83
2022/08/06 02:57:22;;;;;;;4.63;0.90;;;;;;;;;;5037029;28;20616;-82
2022/08/06 02:59:50;;;;;;;3.57;1.30;;;;;;;;;;5071134;28;20190;-82
2022/08/06 03:02:35;;;;;;;2.07;1.00;;;;;;;;;;5055944;28;20582;-81
2022/08/06 03:05:13;;;;;;;1.20;0.70;;;;;;;;;;5055153;28;20700;-82
2022/08/06 03:07:43;;;;;;;1.53;0.80;;;;;;;;;;5054679;28;20186;-83
2022/08/06 03:10:12;;;;;;;1.97;0.90;;;;;;;;;;5054070;28;20190;-82
2022/08/06 03:12:39;;;;;;;1.70;1.00;;;;;;;;;;5053701;28;20530;-82
2022/08/06 03:15:09;;;;;;;4.60;1.03;;;;;;;;;;5054357;28;20190;-82
2022/08/06 03:17:59;;;;;;;9.80;1.30;;;;;;;;;;5070664;28;20220;-82
2022/08/06 03:20:30;;;;;;;2.37;0.80;;;;;;;;;;5071059;28;20349;-82
2022/08/06 03:22:59;;;;;;;1.90;0.90;;;;;;;;;;5037188;28;20523;-82
2022/08/06 03:25:27;;;;;;;2.80;0.97;;;;;;;;;;5057234;28;20186;-82
2022/08/06 03:27:57;;;;;;;2.87;0.93;;;;;;;;;;5062349;28;20218;-82
2022/08/06 03:30:28;;;;;;;2.23;0.87;;;;;;;;;;5034164;28;20245;-82
2022/08/06 03:33:23;;;;;;;1.77;0.93;;;;;;;;;;5033784;28;20190;-81
2022/08/06 03:36:11;;;;;;;5.70;1.13;;;;;;;;;;5045692;28;20211;-82
2022/08/06 03:38:45;;;;;;;2.30;1.10;;;;;;;;;;5050812;28;20210;-82
2022/08/06 03:41:19;;;;;;;2.90;0.80;;;;;;;;;;5034467;28;20580;-82
2022/08/06 03:43:54;;;;;;;1.73;0.90;;;;;;;;;;5049922;28;20198;-81
2022/08/06 03:46:40;;;;;;;3.13;0.80;;;;;;;;;;5050058;28;20217;-81
2022/08/06 03:49:08;;;;;;;1.77;1.00;;;;;;;;;;5051121;28;20194;-82
2022/08/06 03:51:38;;;;;;;4.20;1.00;;;;;;;;;;5049087;28;20218;-82
2022/08/06 03:54:24;;;;;;;2.20;0.83;;;;;;;;;;5051006;28;20203;-81
2022/08/06 03:57:01;;;;;;;2.20;0.90;;;;;;;;;;5049688;28;20597;-82
2022/08/06 03:59:39;;;;;;;2.47;0.87;;;;;;;;;;5050758;28;20670;-81
2022/08/06 04:02:23;;;;;;;2.40;0.90;;;;;;;;;;5050106;28;20187;-83
2022/08/06 04:05:11;;;;;;;3.77;1.30;;;;;;;;;;5036007;28;20195;-82
2022/08/06 04:07:39;;;;;;;2.00;1.00;;;;;;;;;;5051106;28;20202;-82
2022/08/06 04:10:26;;;;;;;2.13;1.30;;;;;;;;;;5021944;28;20183;-80
2022/08/06 04:13:00;;;;;;;2.20;1.20;;;;;;;;;;5034245;28;20664;-81
2022/08/06 04:15:47;;;;;;;2.27;1.10;;;;;;;;;;5049965;28;20278;-81
2022/08/06 04:18:15;;;;;;;3.73;1.40;;;;;;;;;;5049310;28;20232;-82
2022/08/06 04:20:46;;;;;;;4.73;1.33;;;;;;;;;;5049340;28;20202;-82
2022/08/06 04:23:19;;;;;;;2.00;1.03;;;;;;;;;;5047626;28;20214;-82
2022/08/06 04:26:04;;;;;;;3.30;1.00;;;;;;;;;;5039942;28;20223;-82
2022/08/06 04:28:38;;;;;;;1.73;1.27;;;;;;;;;;5030323;28;20235;-81
2022/08/06 04:31:23;;;;;;;1.93;1.00;;;;;;;;;;5032890;28;20644;-81
2022/08/06 04:34:10;;;;;;;2.63;0.97;;;;;;;;;;5034248;28;20196;-81
2022/08/06 04:36:37;;;;;;;3.27;1.07;;;;;;;;;;5034119;28;20210;-81
2022/08/06 04:39:06;;;;;;;2.67;1.10;;;;;;;;;;5016382;28;20222;-81
2022/08/06 04:41:41;;;;;;;2.00;1.10;;;;;;;;;;5032896;28;20745;-82
2022/08/06 04:44:10;;;;;;;2.20;0.90;;;;;;;;;;5017146;28;20546;-81
2022/08/06 04:46:39;;;;;;;1.53;1.00;;;;;;;;;;5032946;28;20203;-81
2022/08/06 04:49:06;;;;;;;2.57;1.27;;;;;;;;;;5032744;28;20184;-81
2022/08/06 04:51:41;;;;;;;3.83;0.90;;;;;;;;;;5032720;28;20199;-82
2022/08/06 04:54:28;;;;;;;4.00;1.00;;;;;;;;;;5034089;28;20183;-82
2022/08/06 04:56:55;;;;;;;2.47;1.20;;;;;;;;;;5032784;28;20191;-82
2022/08/06 04:59:34;;;;;;;4.30;1.77;;;;;;;;;;5032733;28;20259;-82
2022/08/06 05:02:16;;;;;;;4.43;2.20;;;;;;;;;;5033104;28;20199;-82
2022/08/06 05:04:45;;;;;;;6.57;1.90;;;;;;;;;;5032127;28;20198;-81
2022/08/06 05:07:23;;;;;;;3.60;1.27;;;;;;;;;;5032838;28;20187;-81
2022/08/06 05:09:58;;;;;;;1.97;0.90;;;;;;;;;;5032036;28;20279;-82
2022/08/06 05:12:26;;;;;;;1.70;1.23;;;;;;;;;;5032079;28;20175;-81
2022/08/06 05:15:04;;;;;;;2.13;0.90;;;;;;;;;;5032022;28;20196;-82
2022/08/06 05:17:35;;;;;;;3.13;0.80;;;;;;;;;;5015792;28;20555;-81
2022/08/06 05:20:06;;;;;;;1.93;0.70;;;;;;;;;;5032083;28;20183;-81
2022/08/06 05:22:54;;;;;;;3.03;0.90;;;;;;;;;;5033208;28;20285;-81
2022/08/06 05:25:28;;;;;;;2.53;1.00;;;;;;;;;;5035923;28;20286;-82
2022/08/06 05:28:02;;;;;;;2.83;1.47;;;;;;;;;;5051325;28;20230;-81
2022/08/06 05:30:43;;;;;;;3.10;0.83;;;;;;;;;;5052278;28;20190;-80
2022/08/06 05:33:11;;;;;;;2.17;0.70;;;;;;;;;;5052881;28;20252;-81
2022/08/06 05:35:43;;;;;;;1.60;0.80;;;;;;;;;;5052593;28;20198;-81
2022/08/06 05:38:28;;;;;;;4.57;0.90;;;;;;;;;;5052966;28;20210;-81
2022/08/06 05:40:58;;;;;;;3.60;1.00;;;;;;;;;;5050881;28;20218;-79
2022/08/06 05:43:31;;;;;;;2.87;0.80;;;;;;;;;;5051568;28;20191;-80
2022/08/06 05:46:19;;;;;;;1.83;0.77;;;;;;;;;;5052159;28;20194;-81
2022/08/06 05:48:50;;;;;;;2.87;0.90;;;;;;;;;;5052503;28;20202;-81
2022/08/06 05:51:19;;;;;;;2.00;0.90;;;;;;;;;;5051981;28;20708;-81
2022/08/06 05:54:24;;;;;;;3.03;0.80;;;;;;;;;;5051548;28;20187;-80
2022/08/06 05:56:54;;;;;;;2.33;1.20;;;;;;;;;;5052387;28;20584;-81
2022/08/06 05:59:25;;;;;;;1.90;0.90;;;;;;;;;;5035081;28;20223;-79
2022/08/06 06:02:14;;;;;;;2.53;1.03;;;;;;;;;;5051117;28;20179;-81
2022/08/06 06:04:41;;;;;;;1.23;0.83;;;;;;;;;;5050573;28;20203;-80
2022/08/06 06:07:26;;;;;;;1.80;0.67;;;;;;;;;;5036630;28;20228;-80
2022/08/06 06:10:12;;;;;;;1.90;0.83;;;;;;;;;;5050994;28;20212;-80
2022/08/06 06:12:43;;;;;;;1.97;0.80;;;;;;;;;;5051841;28;20535;-81
2022/08/06 06:15:12;;;;;;;0.90;0.60;;;;;;;;;;5050342;28;20207;-80
2022/08/06 06:18:05;;;;;;;2.77;0.70;;;;;;;;;;5051595;28;20292;-80
2022/08/06 06:20:57;;;;;;;2.30;1.00;;;;;;;;;;5051997;28;20209;-81
2022/08/06 06:23:46;;;;;;;3.87;1.00;;;;;;;;;;5051877;28;20218;-80
2022/08/06 06:26:25;;;;;;;2.30;1.20;;;;;;;;;;5039179;28;20190;-78
2022/08/06 06:29:08;;;;;;;2.93;1.00;;;;;;;;;;5029786;28;20277;-79
2022/08/06 06:31:47;;;;;;;3.33;0.70;;;;;;;;;;5032052;28;20207;-87
2022/08/06 06:34:33;;;;;;;1.00;0.60;;;;;;;;;;5031840;28;20191;-81
2022/08/06 06:37:26;;;;;;;2.63;0.83;;;;;;;;;;5029971;28;20206;-82
2022/08/06 06:40:09;;;;;;;3.13;1.10;;;;;;;;;;5031395;28;20190;-79
2022/08/06 06:43:01;;;;;;;2.33;1.10;;;;;;;;;;5031604;28;20281;-86
2022/08/06 06:45:30;;;;;;;2.37;1.00;;;;;;;;;;5031290;28;20551;-75
2022/08/06 06:48:28;;;;;;;3.73;1.20;;;;;;;;;;5029831;28;20207;-77
2022/08/06 06:50:59;;;;;;;1.53;0.70;;;;;;;;;;5013133;28;20203;-80
2022/08/06 06:53:44;;;;;;;2.17;0.80;;;;;;;;;;5030031;28;20184;-80
2022/08/06 06:56:33;;;;;;;4.13;0.97;;;;;;;;;;5030139;28;20258;-85
2022/08/06 06:59:06;;;;;;;1.93;0.73;;;;;;;;;;5030686;28;20644;-79
2022/08/06 07:01:43;;;;;;;1.80;0.90;;;;;;;;;;5049794;28;20199;-83
2022/08/06 07:04:20;;;;;;;1.40;0.60;;;;;;;;;;5049863;28;20683;-73
2022/08/06 07:06:54;;;;;;;2.80;1.10;;;;;;;;;;5050913;28;20195;-79
2022/08/06 07:09:39;;;;;;;1.97;0.73;;;;;;;;;;5046314;28;20163;-81
2022/08/06 07:12:25;;;;;;;3.27;0.73;;;;;;;;;;5030846;28;20187;-77
2022/08/06 07:15:09;;;;;;;2.17;1.00;;;;;;;;;;5015946;28;20180;-75
2022/08/06 07:17:45;;;;;;;2.30;0.80;;;;;;;;;;5019064;28;20195;-75
2022/08/06 07:20:17;;;;;;;2.77;0.90;;;;;;;;;;5048463;28;20179;-75
2022/08/06 07:22:45;;;;;;;1.50;0.70;;;;;;;;;;5048427;28;20205;-74
2022/08/06 07:25:34;;;;;;;2.63;0.70;;;;;;;;;;5047192;28;20193;-76
2022/08/06 07:28:05;;;;;;;3.53;1.13;;;;;;;;;;5053981;28;20343;-76
2022/08/06 07:30:36;;;;;;;2.63;0.93;;;;;;;;;;5056769;28;20772;-76
2022/08/06 07:33:05;;;;;;;1.97;0.77;;;;;;;;;;5052836;28;20540;-74
2022/08/06 07:35:33;;;;;;;1.43;0.80;;;;;;;;;;5067683;28;20222;-74
2022/08/06 07:38:05;;;;;;;2.63;0.90;;;;;;;;;;5055633;28;20198;-74
2022/08/06 07:40:37;;;;;;;2.30;0.77;;;;;;;;;;5061914;28;20252;-73
2022/08/06 07:43:25;;;;;;;4.50;1.00;;;;;;;;;;5059330;28;20198;-74
2022/08/06 07:45:59;;;;;;;1.50;0.90;;;;;;;;;;5049897;28;20218;-75
2022/08/06 07:48:35;;;;;;;1.10;0.60;;;;;;;;;;5033624;28;20197;-73
2022/08/06 07:51:04;;;;;;;1.93;1.10;;;;;;;;;;5068938;28;20243;-74
2022/08/06 07:53:35;;;;;;;4.47;1.20;;;;;;;;;;5068746;28;20257;-74
2022/08/06 07:56:22;;;;;;;3.43;0.90;;;;;;;;;;5058109;28;20201;-74
2022/08/06 07:58:52;;;;;;;3.07;1.10;;;;;;;;;;5069959;28;20666;-75
2022/08/06 08:01:23;;;;;;;3.07;1.03;;;;;;;;;;5058769;28;20629;-75
2022/08/06 08:07:03;;;;;;;1.87;0.80;;;;;;;;;;5065713;28;20253;-75
2022/08/06 08:09:36;;;;;;;1.97;1.00;;;;;;;;;;5047737;28;20183;-74
2022/08/06 08:12:27;;;;;;;4.20;1.00;;;;;;;;;;5057575;28;20642;-74
2022/08/06 08:15:03;;;;;;;2.00;1.10;;;;;;;;;;5072021;28;20195;-73
2022/08/06 08:17:34;;;;;;;6.30;1.57;;;;;;;;;;5065315;28;20740;-73
2022/08/06 08:20:05;;;;;;;3.93;1.50;;;;;;;;;;5071297;28;20206;-74
2022/08/06 08:22:43;;;;;;;3.70;1.17;;;;;;;;;;5040921;28;21015;-74
2022/08/06 08:25:19;;;;;;;3.83;1.40;;;;;;;;;;5066208;28;20198;-74
2022/08/06 08:28:07;;;;;;;2.03;0.77;;;;;;;;;;5026656;28;20342;-73
2022/08/06 08:30:41;;;;;;;3.23;0.80;;;;;;;;;;5045627;28;20222;-74
2022/08/06 08:33:09;;;;;;;1.30;0.80;;;;;;;;;;5047154;28;20190;-74
2022/08/06 08:35:37;;;;;;;3.27;1.47;;;;;;;;;;5028593;28;20604;-75
2022/08/06 08:38:04;;;;;;;3.93;0.80;;;;;;;;;;5049860;28;20194;-73
2022/08/06 08:40:34;;;;;;;4.30;1.00;;;;;;;;;;5052339;28;20646;-75
2022/08/06 08:43:01;;;;;;;2.17;0.70;;;;;;;;;;5034508;28;20191;-74
2022/08/06 08:45:32;;;;;;;3.33;1.00;;;;;;;;;;5050859;28;20257;-73
2022/08/06 08:48:01;;;;;;;2.00;1.20;;;;;;;;;;5047567;28;20261;-74
2022/08/06 08:50:31;;;;;;;2.50;1.03;;;;;;;;;;5049649;28;20274;-74
2022/08/06 08:53:06;;;;;;;2.80;0.90;;;;;;;;;;5049298;28;20602;-73
2022/08/06 08:55:34;;;;;;;3.07;0.70;;;;;;;;;;5037474;28;20194;-74
2022/08/06 08:58:22;;;;;;;2.50;0.60;;;;;;;;;;5048207;28;20211;-67
2022/08/06 09:01:09;;;;;;;1.60;0.70;;;;;;;;;;5041690;28;20183;-74
2022/08/06 09:04:01;;;;;;;2.20;0.60;;;;;;;;;;5049420;28;20202;-74
2022/08/06 09:06:28;;;;;;;1.50;0.70;;;;;;;;;;5049336;28;20195;-75
2022/08/06 09:09:03;;;;;;;1.33;0.60;;;;;;;;;;5047295;28;20221;-75
2022/08/06 09:11:31;;;;;;;3.47;1.00;;;;;;;;;;5051235;28;20187;-79
2022/08/06 09:14:19;;;;;;;3.00;0.60;;;;;;;;;;5039454;28;20714;-74
2022/08/06 09:17:04;;;;;;;4.57;0.83;;;;;;;;;;5044782;28;20206;-75
2022/08/06 09:19:38;;;;;;;2.10;0.63;;;;;;;;;;5050019;28;20225;-74
2022/08/06 09:22:07;;;;;;;2.67;0.60;;;;;;;;;;5045942;28;20191;-74
2022/08/06 09:24:35;;;;;;;2.77;0.70;;;;;;;;;;5048467;28;20282;-74
2022/08/06 09:27:11;;;;;;;2.60;0.53;;;;;;;;;;5050031;28;20650;-73
2022/08/06 09:29:59;;;;;;;3.07;0.70;;;;;;;;;;5049168;28;20257;-75
2022/08/06 09:32:38;;;;;;;1.80;0.70;;;;;;;;;;5043462;28;20206;-77
2022/08/06 09:35:23;;;;;;;2.80;0.57;;;;;;;;;;5037589;28;20202;-73
2022/08/06 09:38:11;;;;;;;1.77;0.40;;;;;;;;;;5051518;28;20194;-73
2022/08/06 09:41:07;;;;;;;2.17;0.40;;;;;;;;;;5043660;28;20278;-73
2022/08/06 09:43:53;;;;;;;1.27;0.37;;;;;;;;;;5031588;28;20254;-73
2022/08/06 09:46:40;;;;;;;3.00;0.53;;;;;;;;;;5048033;28;20205;-75
2022/08/06 09:49:24;;;;;;;3.23;0.40;;;;;;;;;;5041334;28;20179;-74
2022/08/06 09:52:16;;;;;;;1.77;0.53;;;;;;;;;;5043077;28;20187;-75
2022/08/06 09:54:43;;;;;;;3.07;0.73;;;;;;;;;;5048800;28;20286;-76
2022/08/06 09:57:18;;;;;;;1.47;0.40;;;;;;;;;;5044672;28;20217;-80
2022/08/06 10:00:03;;;;;;;2.07;0.60;;;;;;;;;;5049280;28;21161;-78
2022/08/06 10:02:38;;;;;;;2.47;0.50;;;;;;;;;;5049429;28;20205;-79
2022/08/06 10:05:10;;;;;;;3.63;0.67;;;;;;;;;;5048636;28;20512;-79
2022/08/06 10:07:47;;;;;;;3.30;0.60;;;;;;;;;;5050596;28;20197;-79
2022/08/06 10:10:22;;;;;;;1.57;0.30;;;;;;;;;;5048669;28;20722;-79
2022/08/06 10:13:10;;;;;;;3.13;0.40;;;;;;;;;;5038611;28;20566;-80
2022/08/06 10:15:54;;;;;;;0.90;0.43;;;;;;;;;;5049346;28;20174;-73
2022/08/06 10:18:32;;;;;;;2.93;0.60;;;;;;;;;;5048409;28;20198;-76
2022/08/06 10:21:24;;;;;;;3.57;0.50;;;;;;;;;;5048787;28;20197;-76
2022/08/06 10:24:12;;;;;;;5.57;0.53;;;;;;;;;;5049803;28;20283;-75
2022/08/06 10:26:52;;;;;;;2.03;0.67;;;;;;;;;;5040238;28;20236;-74
2022/08/06 10:29:21;;;;;;;1.53;0.43;;;;;;;;;;5048645;28;20218;-76
2022/08/06 10:32:15;;;;;;;2.73;0.50;;;;;;;;;;5047474;28;20233;-62
2022/08/06 10:34:44;;;;;;;1.50;0.37;;;;;;;;;;5068161;28;20210;-77
2022/08/06 10:37:12;;;;;;;1.47;0.53;;;;;;;;;;5051813;28;20194;-76
2022/08/06 10:40:00;;;;;;;0.93;0.40;;;;;;;;;;5054323;28;20282;-75
2022/08/06 10:42:35;;;;;;;1.43;0.47;;;;;;;;;;5050560;28;20665;-76
2022/08/06 10:45:09;;;;;;;2.03;0.70;;;;;;;;;;5068040;28;20198;-76
2022/08/06 10:47:40;;;;;;;2.03;0.50;;;;;;;;;;5051359;28;20539;-76
2022/08/06 10:50:29;;;;;;;1.63;0.60;;;;;;;;;;5048653;28;20545;-76
2022/08/06 10:53:13;;;;;;;2.30;0.40;;;;;;;;;;5053304;28;20710;-76
2022/08/06 10:56:04;;;;;;;2.60;0.50;;;;;;;;;;5047900;28;20191;-76
2022/08/06 10:58:35;;;;;;;1.00;0.50;;;;;;;;;;5048126;28;20194;-76
2022/08/06 11:01:05;;;;;;;1.77;0.60;;;;;;;;;;5049902;28;20218;-75
2022/08/06 11:04:09;;;;;;;1.07;0.50;;;;;;;;;;5051173;28;20182;-75
2022/08/06 11:06:52;;;;;;;3.27;0.40;;;;;;;;;;5052316;28;20198;-75
2022/08/06 11:09:39;;;;;;;1.23;0.20;;;;;;;;;;5052885;28;20241;-69
2022/08/06 11:12:26;;;;;;;2.00;0.47;;;;;;;;;;5045727;28;20282;-72
2022/08/06 11:14:53;;;;;;;1.47;0.50;;;;;;;;;;5067714;28;20190;-70
2022/08/06 11:17:20;;;;;;;1.57;0.37;;;;;;;;;;5068226;28;20209;-63
2022/08/06 11:19:48;;;;;;;2.40;0.50;;;;;;;;;;5068363;28;20707;-74
2022/08/06 11:22:35;;;;;;;1.93;0.50;;;;;;;;;;5067486;28;20205;-73
2022/08/06 11:25:08;;;;;;;3.23;0.40;;;;;;;;;;5049067;28;20526;-74
2022/08/06 11:28:01;;;;;;;0.77;0.43;;;;;;;;;;5040858;28;20230;-74
2022/08/06 11:30:37;;;;;;;1.30;0.40;;;;;;;;;;5025417;28;20196;-73
2022/08/06 11:33:04;;;;;;;1.67;0.50;;;;;;;;;;5026959;28;20222;-73
2022/08/06 11:35:33;;;;;;;3.47;0.40;;;;;;;;;;5013892;28;20260;-73
2022/08/06 11:38:34;;;;;;;0.97;0.30;;;;;;;;;;5026382;28;20215;-74
2022/08/06 11:41:08;;;;;;;1.30;0.40;;;;;;;;;;5032108;28;20702;-73
2022/08/06 11:44:03;;;;;;;1.40;0.50;;;;;;;;;;5040303;28;20278;-74
2022/08/06 11:46:35;;;;;;;0.87;0.33;;;;;;;;;;5033343;28;20655;-73
2022/08/06 11:49:14;;;;;;;0.70;0.30;;;;;;;;;;5032557;28;21065;-74
2022/08/06 11:51:51;;;;;;;2.93;0.50;;;;;;;;;;5011822;28;20599;-73
2022/08/06 11:54:34;;;;;;;2.00;0.60;;;;;;;;;;5028983;28;20183;-74
2022/08/06 11:57:02;;;;;;;1.17;0.40;;;;;;;;;;5032074;28;20189;-73
2022/08/06 11:59:33;;;;;;;1.50;0.50;;;;;;;;;;5033057;28;20298;-73
2022/08/06 12:02:07;;;;;;;1.60;0.50;;;;;;;;;;5030978;28;20220;-73
2022/08/06 12:04:38;;;;;;;1.73;0.60;;;;;;;;;;5032909;28;20265;-72
2022/08/06 12:07:27;;;;;;;1.30;0.50;;;;;;;;;;5029428;28;20512;-73
2022/08/06 12:10:05;;;;;;;3.80;0.60;;;;;;;;;;5030505;28;20325;-73
2022/08/06 12:12:33;;;;;;;2.87;0.50;;;;;;;;;;5019294;28;20827;-72
2022/08/06 12:15:01;;;;;;;2.47;0.43;;;;;;;;;;5025120;28;20190;-72
2022/08/06 12:17:33;;;;;;;1.90;0.40;;;;;;;;;;5030334;28;20192;-73
2022/08/06 12:20:27;;;;;;;0.63;0.40;;;;;;;;;;5011800;28;20700;-72
2022/08/06 12:23:08;;;;;;;2.17;0.70;;;;;;;;;;5024528;28;20235;-72
2022/08/06 12:25:39;;;;;;;2.33;0.40;;;;;;;;;;5014005;28;20242;-72
2022/08/06 12:28:10;;;;;;;1.27;0.40;;;;;;;;;;5044471;28;20214;-72
2022/08/06 12:30:42;;;;;;;1.10;0.60;;;;;;;;;;5045953;28;20204;-72
2022/08/06 12:33:14;;;;;;;2.20;0.57;;;;;;;;;;5043880;28;20256;-72
2022/08/06 12:35:52;;;;;;;1.40;0.40;;;;;;;;;;5046663;28;20188;-72
2022/08/06 12:38:22;;;;;;;2.17;0.47;;;;;;;;;;5049393;28;20224;-72
2022/08/06 12:41:07;;;;;;;1.43;0.50;;;;;;;;;;5043375;28;20277;-72
2022/08/06 12:43:41;;;;;;;2.43;0.40;;;;;;;;;;5033291;28;20191;-72
2022/08/06 12:46:27;;;;;;;2.07;0.50;;;;;;;;;;5050330;28;20183;-70
2022/08/06 12:48:57;;;;;;;1.63;0.50;;;;;;;;;;5049791;28;20229;-71
2022/08/06 12:51:41;;;;;;;1.60;0.60;;;;;;;;;;5044007;28;20678;-71
2022/08/06 12:54:08;;;;;;;1.80;0.50;;;;;;;;;;5048972;28;20237;-71
2022/08/06 12:56:36;;;;;;;1.30;0.40;;;;;;;;;;5043706;28;20249;-71
2022/08/06 12:59:05;;;;;;;4.67;1.10;;;;;;;;;;5051400;28;20187;-71
2022/08/06 13:01:49;;;;;;;1.90;0.50;;;;;;;;;;5049636;28;20198;-70
2022/08/06 13:04:37;;;;;;;0.97;0.50;;;;;;;;;;5057356;28;20198;-69
2022/08/06 13:07:05;;;;;;;2.10;0.70;;;;;;;;;;5047805;28;20183;-68
2022/08/06 13:09:40;;;;;;;1.07;0.50;;;;;;;;;;5050046;28;20204;-68
2022/08/06 13:12:27;;;;;;;1.73;0.60;;;;;;;;;;5050047;28;20282;-68
2022/08/06 13:15:14;;;;;;;1.80;0.50;;;;;;;;;;5044130;28;20233;-67
2022/08/06 13:18:07;;;;;;;1.93;0.90;;;;;;;;;;5019055;28;20739;-70
2022/08/06 13:20:43;;;;;;;3.47;0.67;;;;;;;;;;5039433;28;20322;-72
2022/08/06 13:23:12;;;;;;;3.00;0.90;;;;;;;;;;5039411;28;20222;-74
2022/08/06 13:25:52;;;;;;;1.77;0.60;;;;;;;;;;5041318;28;20210;-71
2022/08/06 13:28:35;;;;;;;2.67;1.30;;;;;;;;;;5052824;28;20744;-71
2022/08/06 13:31:16;;;;;;;2.43;1.00;;;;;;;;;;5060312;28;20257;-76
2022/08/06 13:34:03;;;;;;;1.37;0.70;;;;;;;;;;5061181;28;21049;-72
2022/08/06 13:36:31;;;;;;;2.97;0.80;;;;;;;;;;5043084;28;20317;-76
2022/08/06 13:39:26;;;;;;;3.27;0.60;;;;;;;;;;5058550;28;20213;-72
2022/08/06 13:42:19;;;;;;;1.63;0.70;;;;;;;;;;5057193;28;20203;-74
2022/08/06 13:44:55;;;;;;;3.90;0.83;;;;;;;;;;5054178;28;20198;-74
2022/08/06 13:47:27;;;;;;;2.03;0.60;;;;;;;;;;5051034;28;20200;-74
2022/08/06 13:50:12;;;;;;;1.30;0.40;;;;;;;;;;5046942;28;20206;-73
2022/08/06 13:52:45;;;;;;;2.07;0.80;;;;;;;;;;5043967;28;20237;-76
2022/08/06 13:55:23;;;;;;;1.47;0.53;;;;;;;;;;5055889;28;20273;-74
2022/08/06 13:57:52;;;;;;;1.83;0.60;;;;;;;;;;5050745;28;20285;-75
2022/08/06 14:00:18;;;;;;;1.73;0.80;;;;;;;;;;5033036;28;20206;-74
2022/08/06 14:02:46;;;;;;;3.03;0.60;;;;;;;;;;5063286;28;20650;-75
2022/08/06 14:05:13;;;;;;;3.13;0.60;;;;;;;;;;5050642;28;20273;-74
2022/08/06 14:07:59;;;;;;;2.70;0.70;;;;;;;;;;5041306;28;20223;-76
2022/08/06 14:10:26;;;;;;;2.40;0.80;;;;;;;;;;5052133;28;20240;-75
2022/08/06 14:15:45;;;;;;;0.67;0.40;;;;;;;;;;5059162;28;20206;-74
2022/08/06 14:18:13;;;;;;;1.40;0.67;;;;;;;;;;5063479;28;20993;-74
2022/08/06 14:20:40;;;;;;;1.70;0.60;;;;;;;;;;5036682;28;20317;-74
2022/08/06 14:23:07;;;;;;;1.10;0.40;;;;;;;;;;5046554;28;20197;-74
2022/08/06 14:25:34;;;;;;;1.73;0.60;;;;;;;;;;5062974;28;20251;-74
2022/08/06 14:28:21;;;;;;;1.53;0.50;;;;;;;;;;5054795;28;20257;-74
2022/08/06 14:30:49;;;;;;;2.77;0.60;;;;;;;;;;5055368;28;20190;-74
2022/08/06 14:33:18;;;;;;;5.70;0.70;;;;;;;;;;5035867;28;20190;-74
2022/08/06 14:35:52;;;;;;;1.70;0.70;;;;;;;;;;5059867;28;20229;-74
2022/08/06 14:38:20;;;;;;;1.67;0.80;;;;;;;;;;5045160;28;20222;-74
2022/08/06 14:46:28;;;;;;;3.63;1.40;;;;;;;;;;5068726;28;20190;-74
2022/08/06 14:48:59;;;;;;;1.60;0.67;;;;;;;;;;5050622;28;20190;-73
2022/08/06 14:51:35;;;;;;;4.23;0.50;;;;;;;;;;5035015;28;20252;-74
2022/08/06 14:54:22;;;;;;;2.83;0.50;;;;;;;;;;5069245;28;20201;-73
2022/08/06 14:57:01;;;;;;;1.70;0.70;;;;;;;;;;5066367;28;20208;-73
2022/08/06 14:59:43;;;;;;;2.27;0.67;;;;;;;;;;5069135;28;20213;-73
2022/08/06 15:02:21;;;;;;;2.07;0.70;;;;;;;;;;5047456;28;20286;-72
2022/08/06 15:04:52;;;;;;;4.23;0.80;;;;;;;;;;5068816;28;20192;-73
2022/08/06 15:07:20;;;;;;;1.07;0.53;;;;;;;;;;5046948;28;20195;-74
2022/08/06 15:09:51;;;;;;;6.97;0.83;;;;;;;;;;5023444;28;20191;-73
2022/08/06 15:12:38;;;;;;;2.07;0.80;;;;;;;;;;5047195;28;20269;-74
2022/08/06 15:15:16;;;;;;;3.40;0.77;;;;;;;;;;5052328;28;20205;-74
2022/08/06 15:17:49;;;;;;;2.13;0.60;;;;;;;;;;5056077;28;20259;-74
2022/08/06 15:20:36;;;;;;;2.30;0.90;;;;;;;;;;5067904;28;20693;-74
2022/08/06 15:23:04;;;;;;;3.73;0.67;;;;;;;;;;5050268;28;20297;-74
2022/08/06 15:25:33;;;;;;;1.80;0.70;;;;;;;;;;5067912;28;20590;-73
2022/08/06 15:28:23;;;;;;;2.60;0.70;;;;;;;;;;5026555;28;20230;-73
2022/08/06 15:30:50;;;;;;;2.23;0.73;;;;;;;;;;5027187;28;20551;-74
2022/08/06 15:33:17;;;;;;;2.23;0.70;;;;;;;;;;5032967;28;20199;-71
2022/08/06 15:35:46;;;;;;;2.77;0.80;;;;;;;;;;5029213;28;20218;-76
2022/08/06 15:38:25;;;;;;;3.40;0.90;;;;;;;;;;5017994;28;20678;-75
2022/08/06 15:40:53;;;;;;;4.63;0.70;;;;;;;;;;5046142;28;20210;-75
2022/08/06 15:43:21;;;;;;;2.23;0.60;;;;;;;;;;5047790;28;20677;-75
2022/08/06 15:45:49;;;;;;;3.03;0.70;;;;;;;;;;5047732;28;20217;-76
2022/08/06 15:48:24;;;;;;;3.00;0.87;;;;;;;;;;5047628;28;20198;-70
2022/08/06 15:50:55;;;;;;;1.40;0.57;;;;;;;;;;5046027;28;20953;-76
2022/08/06 15:53:42;;;;;;;3.73;0.70;;;;;;;;;;5048160;28;20981;-75